createdAt,value
2019-02-15T00:00:42.399Z,95910.78
2019-02-15T00:03:09.838Z,95912.14
2019-02-15T00:05:37.593Z,95915.55
2019-02-15T00:08:05.842Z,95919.79
2019-02-15T00:10:33.218Z,95924.17
2019-02-15T00:13:00.629Z,95919.03
2019-02-15T00:15:28.102Z,95921.13
2019-02-15T00:18:15.029Z,95919.78
2019-02-15T00:20:49.123Z,95921.70
2019-02-15T00:23:16.719Z,95930.69
2019-02-15T00:25:44.213Z,95925.67
2019-02-15T00:28:11.649Z,95915.52
2019-02-15T00:30:38.987Z,95917.18
2019-02-15T00:33:06.428Z,95907.61
2019-02-15T00:35:33.856Z,95913.13
2019-02-15T00:38:01.254Z,95904.28
2019-02-15T00:40:28.678Z,95907.88
2019-02-15T00:42:56.038Z,95915.46
2019-02-15T00:45:26.439Z,95908.78
2019-02-15T00:48:00.777Z,95901.36
2019-02-15T00:50:46.473Z,95904.77
2019-02-15T00:53:20.772Z,95901.45
2019-02-15T00:56:06.335Z,95890.95
2019-02-15T00:58:59.198Z,95894.17
2019-02-15T01:01:43.085Z,95897.69
2019-02-15T01:04:33.097Z,95908.45
2019-02-15T01:07:11.677Z,95897.25
2019-02-15T01:09:47.098Z,95892.80
2019-02-15T01:12:21.131Z,95891.98
2019-02-15T01:14:48.565Z,95895.20
2019-02-15T01:17:16.100Z,95894.14
2019-02-15T01:19:43.526Z,95892.17
2019-02-15T01:22:10.968Z,95897.04
2019-02-15T01:24:38.448Z,95898.19
2019-02-15T01:27:24.220Z,95899.52
2019-02-15T01:30:09.501Z,95903.00
2019-02-15T01:33:05.475Z,95900.11
2019-02-15T01:35:52.432Z,95901.89
2019-02-15T01:38:39.388Z,95898.25
2019-02-15T01:41:17.638Z,95895.41
2019-02-15T01:44:07.100Z,95897.72
2019-02-15T01:46:43.067Z,95902.24
2019-02-15T01:49:10.550Z,95897.66
2019-02-15T01:51:37.990Z,95895.92
2019-02-15T01:54:05.449Z,95902.66
2019-02-15T01:56:32.897Z,95886.91
2019-02-15T01:59:00.280Z,95891.65
2019-02-15T02:01:28.223Z,95889.12
2019-02-15T02:03:55.636Z,95888.50
2019-02-15T02:06:22.996Z,95896.33
2019-02-15T02:08:50.540Z,95896.10
2019-02-15T02:11:17.948Z,95896.66
2019-02-15T02:13:49.790Z,95887.38
2019-02-15T02:16:14.727Z,95888.53
2019-02-15T02:18:42.252Z,95888.88
2019-02-15T02:21:09.695Z,95889.25
2019-02-15T02:23:37.228Z,95887.50
2019-02-15T02:26:04.710Z,95889.24
2019-02-15T02:28:32.122Z,95882.56
2019-02-15T02:30:59.478Z,95886.45
2019-02-15T02:33:26.887Z,95888.88
2019-02-15T02:35:54.346Z,95875.92
2019-02-15T02:38:21.743Z,95888.16
2019-02-15T02:40:49.109Z,95860.46
2019-02-15T02:43:16.518Z,95874.25
2019-02-15T02:45:44.077Z,95865.30
2019-02-15T02:48:11.438Z,95871.20
2019-02-15T02:50:38.870Z,95874.22
2019-02-15T02:53:06.358Z,95873.62
2019-02-15T02:55:33.881Z,95867.54
2019-02-15T02:58:01.433Z,95828.70
2019-02-15T03:00:33.603Z,95871.36
2019-02-15T03:02:58.114Z,95870.43
2019-02-15T03:05:25.543Z,95879.99
2019-02-15T03:07:53.077Z,95883.03
2019-02-15T03:10:20.509Z,95887.94
2019-02-15T03:12:48.049Z,95883.41
2019-02-15T03:15:15.450Z,95887.94
2019-02-15T03:17:42.929Z,95889.58
2019-02-15T03:20:10.559Z,95887.47
2019-02-15T03:22:37.981Z,95885.61
2019-02-15T03:25:05.499Z,95883.16
2019-02-15T03:27:32.930Z,95893.47
2019-02-15T03:30:00.687Z,95887.07
2019-02-15T03:32:28.274Z,95886.03
2019-02-15T03:34:55.682Z,95884.71
2019-02-15T03:37:54.458Z,95889.49
2019-02-15T03:40:50.250Z,95890.38
2019-02-15T03:43:17.684Z,95888.59
2019-02-15T03:45:46.074Z,95888.97
2019-02-15T03:48:13.539Z,95892.69
2019-02-15T03:50:40.964Z,95888.09
2019-02-15T03:53:08.398Z,95895.52
2019-02-15T03:55:35.837Z,95887.29
2019-02-15T03:58:03.273Z,95888.78
2019-02-15T04:00:30.892Z,95889.34
2019-02-15T04:02:58.338Z,95894.53
2019-02-15T04:05:25.885Z,95887.41
2019-02-15T04:07:53.298Z,95891.02
2019-02-15T04:10:20.720Z,95896.95
2019-02-15T04:12:48.094Z,95896.08
2019-02-15T04:15:15.634Z,95899.47
2019-02-15T04:17:43.121Z,95898.88
2019-02-15T04:20:10.550Z,95909.28
2019-02-15T04:22:38.141Z,95912.16
2019-02-15T04:25:05.590Z,95911.02
2019-02-15T04:27:33.046Z,95913.44
2019-02-15T04:30:00.517Z,95918.88
2019-02-15T04:32:27.947Z,95923.25
2019-02-15T04:34:55.404Z,95924.88
2019-02-15T04:37:22.837Z,95923.36
2019-02-15T04:39:50.221Z,95931.82
2019-02-15T04:42:17.671Z,95933.98
2019-02-15T04:44:45.185Z,95932.41
2019-02-15T04:47:12.616Z,95933.89
2019-02-15T04:49:40.119Z,95933.45
2019-02-15T04:52:07.560Z,95933.26
2019-02-15T04:54:34.979Z,95943.48
2019-02-15T04:57:02.483Z,95946.87
2019-02-15T04:59:29.988Z,95941.91
2019-02-15T05:01:57.434Z,95945.08
2019-02-15T05:04:24.870Z,95947.30
2019-02-15T05:06:52.248Z,95956.05
2019-02-15T05:09:19.684Z,95958.29
2019-02-15T05:11:47.125Z,95961.57
2019-02-15T05:14:14.576Z,95967.05
2019-02-15T05:16:42.007Z,95958.77
2019-02-15T05:19:09.463Z,95976.02
2019-02-15T05:21:36.896Z,95969.64
2019-02-15T05:24:04.457Z,95973.95
2019-02-15T05:26:31.881Z,95984.81
2019-02-15T05:28:59.352Z,95978.50
2019-02-15T05:31:26.783Z,95981.78
2019-02-15T05:33:54.270Z,95989.77
2019-02-15T05:36:21.643Z,95987.89
2019-02-15T05:38:49.111Z,95992.63
2019-02-15T05:41:16.575Z,96006.44
2019-02-15T05:43:43.943Z,96003.23
2019-02-15T05:46:11.411Z,96006.49
2019-02-15T05:48:38.865Z,96006.93
2019-02-15T05:51:06.767Z,96007.97
2019-02-15T05:53:34.142Z,96022.04
2019-02-15T05:56:01.636Z,96018.77
2019-02-15T05:58:29.103Z,96027.94
2019-02-15T06:00:56.463Z,96028.59
2019-02-15T06:03:23.929Z,96036.73
2019-02-15T06:05:51.380Z,96031.26
2019-02-15T06:08:18.876Z,96048.20
2019-02-15T06:10:46.284Z,96044.47
2019-02-15T06:13:13.769Z,96038.41
2019-02-15T06:15:41.244Z,96035.25
2019-02-15T06:18:08.722Z,96041.30
2019-02-15T06:20:36.123Z,96034.24
2019-02-15T06:23:03.560Z,96035.24
2019-02-15T06:25:31.126Z,96034.61
2019-02-15T06:27:58.561Z,96039.55
2019-02-15T06:30:25.974Z,96048.91
2019-02-15T06:32:53.513Z,96051.72
2019-02-15T06:35:20.971Z,96067.32
2019-02-15T06:37:48.384Z,96054.95
2019-02-15T06:40:15.789Z,96061.75
2019-02-15T06:42:43.219Z,96065.81
2019-02-15T06:45:10.780Z,96064.52
2019-02-15T06:47:38.267Z,96071.98
2019-02-15T06:50:06.226Z,96076.48
2019-02-15T06:52:33.698Z,96081.63
2019-02-15T06:55:01.148Z,96076.63
2019-02-15T06:57:28.521Z,96079.30
2019-02-15T07:00:14.142Z,96074.67
2019-02-15T07:02:50.006Z,96076.94
2019-02-15T07:05:25.945Z,96075.75
2019-02-15T07:07:53.962Z,96083.19
2019-02-15T07:10:21.366Z,96087.56
2019-02-15T07:12:49.033Z,96081.77
2019-02-15T07:15:16.538Z,96089.34
2019-02-15T07:17:43.997Z,96101.95
2019-02-15T07:20:11.596Z,96098.86
2019-02-15T07:22:39.051Z,96104.95
2019-02-15T07:25:07.859Z,96083.75
2019-02-15T07:27:35.281Z,96089.23
2019-02-15T07:30:02.815Z,96091.45
2019-02-15T07:32:30.270Z,96090.71
2019-02-15T07:34:57.745Z,96084.22
2019-02-15T07:37:25.101Z,96083.11
2019-02-15T07:39:52.565Z,96093.19
2019-02-15T07:42:21.221Z,96087.84
2019-02-15T07:44:48.843Z,96091.45
2019-02-15T07:47:16.261Z,96084.34
2019-02-15T07:49:43.757Z,96077.34
2019-02-15T07:52:11.178Z,96065.98
2019-02-15T07:54:38.658Z,96064.84
2019-02-15T07:57:07.354Z,96065.98
2019-02-15T07:59:35.018Z,96072.05
2019-02-15T08:02:02.452Z,96080.47
2019-02-15T08:04:29.924Z,96087.56
2019-02-15T08:06:57.457Z,96086.56
2019-02-15T08:09:24.889Z,96070.89
2019-02-15T08:11:52.279Z,96073.41
2019-02-15T08:14:19.701Z,96074.59
2019-02-15T08:16:47.243Z,96075.79
2019-02-15T08:19:15.147Z,96085.02
2019-02-15T08:21:42.590Z,96091.13
2019-02-15T08:24:10.029Z,96095.47
2019-02-15T08:26:37.518Z,96096.47
2019-02-15T08:29:04.869Z,96100.11
2019-02-15T08:31:32.288Z,96097.25
2019-02-15T08:33:59.720Z,96106.83
2019-02-15T08:36:27.096Z,96110.34
2019-02-15T08:38:54.594Z,96113.06
2019-02-15T08:41:22.035Z,96113.67
2019-02-15T08:43:49.402Z,96111.63
2019-02-15T08:46:16.858Z,96117.70
2019-02-15T08:48:46.476Z,96114.61
2019-02-15T08:51:13.648Z,96118.81
2019-02-15T08:53:41.095Z,96123.41
2019-02-15T08:56:08.528Z,96117.88
2019-02-15T08:58:35.973Z,96131.47
2019-02-15T09:01:03.485Z,96130.09
2019-02-15T09:03:30.929Z,96133.14
2019-02-15T09:05:58.312Z,96127.20
2019-02-15T09:08:25.745Z,96125.89
2019-02-15T09:10:53.170Z,96132.98
2019-02-15T09:13:20.546Z,96122.12
2019-02-15T09:15:48.074Z,96128.44
2019-02-15T09:18:15.829Z,96129.41
2019-02-15T09:20:43.292Z,96130.97
2019-02-15T09:23:12.239Z,96131.13
2019-02-15T09:25:39.888Z,96129.77
2019-02-15T09:28:15.798Z,96137.63
2019-02-15T09:30:46.311Z,96138.14
2019-02-15T09:33:13.724Z,96136.22
2019-02-15T09:35:41.192Z,96141.57
2019-02-15T09:38:08.616Z,96145.06
2019-02-15T09:40:36.016Z,96145.28
2019-02-15T09:43:03.458Z,96144.94
2019-02-15T09:45:32.797Z,96146.29
2019-02-15T09:48:00.216Z,96140.52
2019-02-15T09:50:27.615Z,96140.34
2019-02-15T09:52:55.158Z,96155.81
2019-02-15T09:55:22.586Z,96151.06
2019-02-15T09:57:50.005Z,96136.13
2019-02-15T10:00:17.435Z,96146.42
2019-02-15T10:02:44.797Z,96153.31
2019-02-15T10:05:12.285Z,96140.81
2019-02-15T10:07:40.910Z,96147.13
2019-02-15T10:10:08.480Z,96140.28
2019-02-15T10:12:35.855Z,96149.31
2019-02-15T10:15:03.509Z,96146.61
2019-02-15T10:17:30.982Z,96142.77
2019-02-15T10:19:58.634Z,96138.36
2019-02-15T10:22:25.998Z,96140.11
2019-02-15T10:24:53.434Z,96139.16
2019-02-15T10:27:20.888Z,96140.93
2019-02-15T10:29:48.316Z,96140.73
2019-02-15T10:32:15.714Z,96145.14
2019-02-15T10:34:43.132Z,96145.73
2019-02-15T10:37:10.596Z,96148.02
2019-02-15T10:39:38.090Z,96147.66
2019-02-15T10:42:05.597Z,96155.32
2019-02-15T10:44:33.048Z,96167.95
2019-02-15T10:47:00.494Z,96165.26
2019-02-15T10:49:27.939Z,96165.82
2019-02-15T10:51:55.383Z,96161.48
2019-02-15T10:54:22.841Z,96160.77
2019-02-15T10:56:50.301Z,96167.91
2019-02-15T10:59:17.696Z,96168.23
2019-02-15T11:01:45.233Z,96160.95
2019-02-15T11:04:12.707Z,96153.58
2019-02-15T11:06:40.075Z,96157.16
2019-02-15T11:09:10.397Z,96171.93
2019-02-15T11:11:37.827Z,96162.66
2019-02-15T11:14:05.190Z,96167.45
2019-02-15T11:16:32.630Z,96170.50
2019-02-15T11:19:00.073Z,96164.78
2019-02-15T11:21:27.639Z,96168.32
2019-02-15T11:23:55.083Z,96173.34
2019-02-15T11:26:24.702Z,96177.23
2019-02-15T11:28:51.894Z,96179.95
2019-02-15T11:31:19.290Z,96171.95
2019-02-15T11:33:46.722Z,96175.90
2019-02-15T11:36:14.170Z,96173.00
2019-02-15T11:38:41.600Z,96173.85
2019-02-15T11:41:11.178Z,96166.77
2019-02-15T11:43:38.370Z,96175.19
2019-02-15T11:46:05.784Z,96166.20
2019-02-15T11:48:33.186Z,96169.75
2019-02-15T11:51:01.507Z,96173.36
2019-02-15T11:53:28.977Z,96172.30
2019-02-15T11:55:56.336Z,96177.31
2019-02-15T11:58:23.794Z,96178.66
2019-02-15T12:00:51.204Z,96186.34
2019-02-15T12:03:18.653Z,96184.97
2019-02-15T12:05:46.019Z,96177.20
2019-02-15T12:08:13.445Z,96183.97
2019-02-15T12:10:40.960Z,96182.55
2019-02-15T12:13:08.316Z,96179.02
2019-02-15T12:15:35.736Z,96170.50
2019-02-15T12:18:04.094Z,96180.09
2019-02-15T12:20:31.658Z,96170.59
2019-02-15T12:22:59.241Z,96184.48
2019-02-15T12:25:26.746Z,96176.61
2019-02-15T12:27:54.170Z,96174.12
2019-02-15T12:30:21.655Z,96180.54
2019-02-15T12:32:49.107Z,96178.66
2019-02-15T12:35:16.569Z,96173.70
2019-02-15T12:37:44.030Z,96173.08
2019-02-15T12:40:11.672Z,96181.69
2019-02-15T12:42:39.200Z,96172.52
2019-02-15T12:45:07.687Z,96168.23
2019-02-15T12:47:35.149Z,96165.70
2019-02-15T12:50:02.752Z,96162.84
2019-02-15T12:52:30.183Z,96163.53
2019-02-15T12:54:57.644Z,96157.95
2019-02-15T12:57:25.140Z,96154.90
2019-02-15T12:59:52.610Z,96159.18
2019-02-15T13:02:20.006Z,96161.81
2019-02-15T13:04:47.453Z,96152.59
2019-02-15T13:07:14.891Z,96150.12
2019-02-15T13:09:42.352Z,96161.31
2019-02-15T13:12:09.809Z,96158.61
2019-02-15T13:14:37.225Z,96163.86
2019-02-15T13:17:04.742Z,96158.32
2019-02-15T13:19:32.195Z,96161.50
2019-02-15T13:21:59.670Z,96159.80
2019-02-15T13:24:27.309Z,96168.64
2019-02-15T13:26:54.834Z,96159.94
2019-02-15T13:29:22.207Z,96163.07
2019-02-15T13:31:49.638Z,96167.68
2019-02-15T13:34:17.125Z,96169.61
2019-02-15T13:36:44.537Z,96161.41
2019-02-15T13:39:11.958Z,96164.91
2019-02-15T13:41:39.449Z,96169.80
2019-02-15T13:44:06.959Z,96162.70
2019-02-15T13:46:34.362Z,96167.49
2019-02-15T13:49:01.801Z,96174.41
2019-02-15T13:51:29.244Z,96189.44
2019-02-15T13:53:56.700Z,96179.47
2019-02-15T13:56:24.355Z,96181.00
2019-02-15T13:58:51.817Z,96188.11
2019-02-15T14:01:19.241Z,96191.39
2019-02-15T14:03:46.711Z,96189.95
2019-02-15T14:06:14.119Z,96189.37
2019-02-15T14:08:41.581Z,96190.10
2019-02-15T14:11:09.035Z,96182.75
2019-02-15T14:13:36.404Z,96186.20
2019-02-15T14:16:03.958Z,96181.75
2019-02-15T14:18:31.414Z,96197.08
2019-02-15T14:20:59.389Z,96181.77
2019-02-15T14:23:26.847Z,96184.83
2019-02-15T14:25:54.425Z,96188.83
2019-02-15T14:28:21.906Z,96178.76
2019-02-15T14:30:49.607Z,96174.30
2019-02-15T14:33:17.042Z,96167.08
2019-02-15T14:35:44.503Z,96165.97
2019-02-15T14:38:11.864Z,96165.02
2019-02-15T14:40:39.343Z,96163.27
2019-02-15T14:43:06.851Z,96167.41
2019-02-15T14:45:34.444Z,96164.79
2019-02-15T14:48:02.064Z,96161.80
2019-02-15T14:50:29.956Z,96165.70
2019-02-15T14:52:57.387Z,96167.28
2019-02-15T14:55:24.835Z,96178.61
2019-02-15T14:57:52.262Z,96172.81
2019-02-15T15:00:19.636Z,96179.30
2019-02-15T15:02:47.079Z,96181.55
2019-02-15T15:05:14.599Z,96174.76
2019-02-15T15:07:42.047Z,96171.59
2019-02-15T15:10:09.784Z,96181.62
2019-02-15T15:12:37.212Z,96170.55
2019-02-15T15:15:05.887Z,96158.77
2019-02-15T15:17:33.328Z,96165.26
2019-02-15T15:20:00.763Z,96154.30
2019-02-15T15:22:28.227Z,96163.94
2019-02-15T15:24:55.664Z,96157.92
2019-02-15T15:27:23.260Z,96162.31
2019-02-15T15:29:50.727Z,96169.59
2019-02-15T15:32:18.344Z,96171.47
2019-02-15T15:34:45.830Z,96172.61
2019-02-15T15:37:16.565Z,96164.16
2019-02-15T15:39:42.833Z,96171.25
2019-02-15T15:42:10.216Z,96173.93
2019-02-15T15:44:37.592Z,96176.02
2019-02-15T15:47:06.394Z,96176.25
2019-02-15T15:49:33.842Z,96190.30
2019-02-15T15:52:01.301Z,96195.01
2019-02-15T15:54:28.711Z,96198.95
2019-02-15T15:56:56.182Z,96197.61
2019-02-15T15:59:23.617Z,96206.19
2019-02-15T16:01:51.000Z,96200.83
2019-02-15T16:04:18.444Z,96192.94
2019-02-15T16:06:46.040Z,96196.94
2019-02-15T16:09:13.537Z,96206.89
2019-02-15T16:11:40.992Z,96210.36
2019-02-15T16:14:08.461Z,96217.65
2019-02-15T16:16:35.914Z,96219.52
2019-02-15T16:19:03.367Z,96221.05
2019-02-15T16:21:30.896Z,96233.38
2019-02-15T16:23:58.381Z,96227.91
2019-02-15T16:26:25.882Z,96238.53
2019-02-15T16:28:53.581Z,96231.22
2019-02-15T16:31:21.134Z,96234.47
2019-02-15T16:33:48.690Z,96239.81
2019-02-15T16:36:16.138Z,96248.56
2019-02-15T16:38:43.895Z,96248.12
2019-02-15T16:41:11.318Z,96248.14
2019-02-15T16:43:38.824Z,96254.91
2019-02-15T16:46:06.276Z,96262.25
2019-02-15T16:48:41.868Z,96268.63
2019-02-15T16:51:03.000Z,96274.63
2019-02-15T16:53:30.470Z,96272.61
2019-02-15T16:55:57.900Z,96269.25
2019-02-15T16:58:25.510Z,96271.36
2019-02-15T17:00:52.967Z,96277.20
2019-02-15T17:03:20.398Z,96277.95
2019-02-15T17:05:47.955Z,96281.34
2019-02-15T17:08:15.391Z,96289.97
2019-02-15T17:10:44.283Z,96288.91
2019-02-15T17:13:11.751Z,96301.75
2019-02-15T17:15:39.315Z,96305.84
2019-02-15T17:18:06.685Z,96297.03
2019-02-15T17:20:34.141Z,96307.09
2019-02-15T17:23:01.595Z,96304.48
2019-02-15T17:25:28.980Z,96314.02
2019-02-15T17:27:56.434Z,96315.36
2019-02-15T17:30:24.050Z,96311.33
2019-02-15T17:32:51.607Z,96308.74
2019-02-15T17:35:19.025Z,96315.78
2019-02-15T17:37:46.396Z,96284.00
2019-02-15T17:40:13.835Z,96327.10
2019-02-15T17:42:41.360Z,96328.52
2019-02-15T17:45:09.288Z,96330.05
2019-02-15T17:47:36.726Z,96327.74
2019-02-15T17:50:04.893Z,96326.47
2019-02-15T17:52:33.506Z,96325.02
2019-02-15T17:55:00.928Z,96325.94
2019-02-15T17:57:28.346Z,96322.91
2019-02-15T17:59:55.768Z,96326.74
2019-02-15T18:02:23.395Z,96324.23
2019-02-15T18:04:50.774Z,96320.59
2019-02-15T18:07:18.200Z,96325.41
2019-02-15T18:09:45.750Z,96324.88
2019-02-15T18:12:13.207Z,96325.30
2019-02-15T18:14:40.639Z,96327.55
2019-02-15T18:17:08.103Z,96331.64
2019-02-15T18:19:35.561Z,96330.13
2019-02-15T18:22:03.189Z,96327.83
2019-02-15T18:24:30.736Z,96334.88
2019-02-15T18:26:59.423Z,96335.44
2019-02-15T18:29:26.849Z,96341.56
2019-02-15T18:31:54.854Z,96331.41
2019-02-15T18:34:22.293Z,96338.64
2019-02-15T18:36:49.737Z,96335.12
2019-02-15T18:39:17.333Z,96326.45
2019-02-15T18:41:45.114Z,96335.80
2019-02-15T18:44:12.523Z,96342.67
2019-02-15T18:46:39.878Z,96342.37
2019-02-15T18:49:07.547Z,96343.70
2019-02-15T18:51:34.995Z,96347.74
2019-02-15T18:54:02.367Z,96345.42
2019-02-15T18:56:29.827Z,96346.62
2019-02-15T18:58:57.265Z,96355.94
2019-02-15T19:01:24.630Z,96352.63
2019-02-15T19:03:52.077Z,96346.41
2019-02-15T19:06:19.544Z,96342.44
2019-02-15T19:08:46.910Z,96348.89
2019-02-15T19:11:14.633Z,96349.06
2019-02-15T19:13:42.177Z,96346.91
2019-02-15T19:16:09.537Z,96355.07
2019-02-15T19:18:37.013Z,96346.28
2019-02-15T19:21:04.626Z,96345.59
2019-02-15T19:23:32.220Z,96350.94
2019-02-15T19:26:00.012Z,96349.13
2019-02-15T19:28:27.505Z,96348.40
2019-02-15T19:30:54.866Z,96346.58
2019-02-15T19:33:22.467Z,96341.64
2019-02-15T19:35:49.942Z,96336.55
2019-02-15T19:38:17.364Z,96341.36
2019-02-15T19:40:45.186Z,96344.43
2019-02-15T19:43:13.109Z,96346.00
2019-02-15T19:45:40.963Z,96346.20
2019-02-15T19:48:08.428Z,96349.00
2019-02-15T19:50:35.888Z,96345.48
2019-02-15T19:53:03.307Z,96352.11
2019-02-15T19:55:30.845Z,96344.25
2019-02-15T19:57:58.385Z,96339.34
2019-02-15T20:00:26.434Z,96342.22
2019-02-15T20:02:53.872Z,96341.08
2019-02-15T20:05:21.223Z,96332.45
2019-02-15T20:07:48.709Z,96335.02
2019-02-15T20:10:18.783Z,96342.72
2019-02-15T20:12:46.228Z,96336.13
2019-02-15T20:15:13.714Z,96328.39
2019-02-15T20:17:41.372Z,96335.39
2019-02-15T20:20:10.420Z,96334.42
2019-02-15T20:22:38.084Z,96321.41
2019-02-15T20:25:06.549Z,96327.95
2019-02-15T20:27:33.971Z,96329.11
2019-02-15T20:30:03.247Z,96321.28
2019-02-15T20:32:30.693Z,96330.47
2019-02-15T20:34:58.235Z,96329.83
2019-02-15T20:37:25.739Z,96330.98
2019-02-15T20:39:53.209Z,96328.49
2019-02-15T20:42:20.652Z,96327.19
2019-02-15T20:44:48.075Z,96337.47
2019-02-15T20:47:15.495Z,96330.83
2019-02-15T20:49:42.914Z,96337.28
2019-02-15T20:52:10.290Z,96335.81
2019-02-15T20:54:37.725Z,96341.05
2019-02-15T20:57:05.160Z,96339.77
2019-02-15T20:59:32.627Z,96340.62
2019-02-15T21:02:00.103Z,96337.52
2019-02-15T21:04:27.568Z,96334.95
2019-02-15T21:06:55.133Z,96339.59
2019-02-15T21:09:22.517Z,96345.78
2019-02-15T21:11:49.959Z,96344.62
2019-02-15T21:14:17.407Z,96343.39
2019-02-15T21:16:44.770Z,96347.74
2019-02-15T21:19:12.215Z,96344.92
2019-02-15T21:21:39.682Z,96343.07
2019-02-15T21:24:07.184Z,96354.42
2019-02-15T21:26:34.601Z,96359.75
2019-02-15T21:29:01.982Z,96350.95
2019-02-15T21:31:29.394Z,96355.06
2019-02-15T21:33:56.830Z,96347.72
2019-02-15T21:36:24.380Z,96354.27
2019-02-15T21:38:51.785Z,96354.98
2019-02-15T21:41:19.371Z,96356.13
2019-02-15T21:43:46.770Z,96360.10
2019-02-15T21:46:14.226Z,96359.52
2019-02-15T21:48:42.068Z,96354.53
2019-02-15T21:51:09.536Z,96354.51
2019-02-15T21:53:38.974Z,96349.47
2019-02-15T21:56:06.386Z,96348.98
2019-02-15T21:58:33.806Z,96353.38
2019-02-15T22:01:01.561Z,96348.89
2019-02-15T22:03:28.964Z,96343.45
2019-02-15T22:05:56.369Z,96352.70
2019-02-15T22:08:23.811Z,96350.42
2019-02-15T22:10:51.272Z,96359.13
2019-02-15T22:13:18.750Z,96347.86
2019-02-15T22:15:46.263Z,96344.81
2019-02-15T22:18:13.709Z,96349.70
2019-02-15T22:20:41.172Z,96354.20
2019-02-15T22:23:08.689Z,96344.31
2019-02-15T22:25:36.148Z,96352.48
2019-02-15T22:28:03.519Z,96354.06
2019-02-15T22:30:30.964Z,96357.22
2019-02-15T22:32:58.405Z,96353.28
2019-02-15T22:35:25.908Z,96357.23
2019-02-15T22:37:53.372Z,96359.56
2019-02-15T22:40:28.885Z,96357.06
2019-02-15T22:42:57.681Z,96364.05
2019-02-15T22:45:25.137Z,96351.75
2019-02-15T22:47:52.571Z,96352.09
2019-02-15T22:50:20.160Z,96352.63
2019-02-15T22:52:47.662Z,96347.84
2019-02-15T22:55:15.053Z,96344.80
2019-02-15T22:57:42.477Z,96352.40
2019-02-15T23:00:18.179Z,96348.47
2019-02-15T23:02:45.574Z,96344.44
2019-02-15T23:05:13.004Z,96340.88
2019-02-15T23:07:40.415Z,96351.06
2019-02-15T23:10:09.012Z,96344.52
2019-02-15T23:12:36.430Z,96343.47
2019-02-15T23:15:04.193Z,96346.41
2019-02-15T23:17:31.685Z,96342.41
2019-02-15T23:19:59.090Z,96339.12
2019-02-15T23:22:26.497Z,96343.23
2019-02-15T23:24:53.922Z,96338.61
2019-02-15T23:27:21.328Z,96338.58
2019-02-15T23:29:48.720Z,96344.73
2019-02-15T23:32:16.188Z,96342.22
2019-02-15T23:34:43.864Z,96341.28
2019-02-15T23:37:11.560Z,96339.03
2019-02-15T23:39:39.995Z,96332.77
2019-02-15T23:42:08.045Z,96331.73
2019-02-15T23:44:35.724Z,96335.34
2019-02-15T23:47:03.716Z,96336.82
2019-02-15T23:49:31.697Z,96344.66
2019-02-15T23:51:59.534Z,96344.88
2019-02-15T23:54:27.160Z,96343.38
2019-02-15T23:56:54.700Z,96345.86
2019-02-15T23:59:22.158Z,96342.91
